Time;durP1;ratioP1;P1;durP2;ratioP2;P2;SDS_P1;SDS_P2;PMS_P1;PMS_P2;Temp;Humidity;BMP_temperature;BMP_pressure;BME280_temperature;BME280_humidity;BME280_pressure;Samples;Min_cycle;Max_cycle;Signal;HPM_P1;HPM_P2
2023/10/09 00:01:51;;;;;;;;;;;13.00;99.90;;;12.39;100.00;98276.38;4997148;28;19937;-73
2023/10/09 00:04:20;;;;;;;;;;;13.00;99.90;;;12.60;100.00;98273.81;4995307;28;19984;-72
2023/10/09 00:06:48;;;;;;;;;;;13.10;99.90;;;12.83;100.00;98273.75;4998271;28;19933;-73
2023/10/09 00:09:30;;;;;;;;;;;13.30;99.90;;;12.92;100.00;98272.53;4991227;28;19944;-72
2023/10/09 00:11:58;;;;;;;;;;;13.40;99.90;;;12.98;100.00;98272.28;4997518;28;20017;-70
2023/10/09 00:14:26;;;;;;;;;;;13.50;99.90;;;13.00;100.00;98269.59;5010629;28;19933;-73
2023/10/09 00:19:59;;;;;;;;;;;13.70;99.90;;;13.03;100.00;98270.31;4992028;28;19977;-72
2023/10/09 00:22:30;;;;;;;;;;;13.70;99.90;;;13.09;100.00;98270.09;4998113;28;21160;-72
2023/10/09 00:25:10;;;;;;;;;;;13.80;99.90;;;13.13;100.00;98269.00;4994883;28;19929;-73
2023/10/09 00:27:42;;;;;;;;;;;13.80;99.90;;;13.19;100.00;98265.31;4997633;28;19933;-73
2023/10/09 00:30:32;;;;;;;;;;;13.80;99.90;;;13.25;100.00;98261.59;4991964;28;19941;-73
2023/10/09 00:33:00;;;;;;;;;;;13.90;99.90;;;13.29;100.00;98255.38;5006695;28;19933;-73
2023/10/09 00:38:24;;;;;;;;;;;14.00;99.90;;;13.33;100.00;98256.94;5012418;28;20342;-73
2023/10/09 00:41:10;;;;;;;;;;;14.00;99.90;;;13.28;100.00;98254.53;5004202;28;19933;-73
2023/10/09 00:43:38;;;;;;;;;;;14.00;99.90;;;13.19;100.00;98257.50;5000274;28;19929;-72
2023/10/09 00:46:23;;;;;;;;;;;14.00;99.90;;;13.31;100.00;98253.56;5004436;28;19988;-73
2023/10/09 00:49:00;;;;;;;;;;;14.00;99.90;;;13.37;100.00;98250.69;5020188;28;19975;-73
2023/10/09 00:51:35;;;;;;;;;;;14.00;99.90;;;13.36;100.00;98246.38;5002217;28;19937;-72
2023/10/09 00:54:13;;;;;;;;;;;14.10;99.90;;;13.11;100.00;98255.22;5000180;28;20418;-72
2023/10/09 00:56:57;;;;;;;;;;;14.00;99.90;;;13.15;100.00;98248.09;5001285;28;20647;-72
2023/10/09 00:59:25;;;;;;;;;;;13.90;99.90;;;13.12;100.00;98250.84;5007042;28;19980;-73
2023/10/09 01:02:35;;;;;;;;;;;13.90;99.90;;;13.06;100.00;98238.91;4999698;28;20042;-73
2023/10/09 01:04:45;;;;;;;;;;;13.90;99.90;;;13.08;100.00;98238.84;5013756;28;20016;-73
2023/10/09 01:07:16;;;;;;;;;;;13.90;99.90;;;13.08;100.00;98241.47;5003627;28;19937;-73
2023/10/09 01:09:44;;;;;;;;;;;13.90;99.90;;;13.03;100.00;98240.81;5001406;28;19934;-73
2023/10/09 01:12:16;;;;;;;;;;;13.90;99.90;;;13.08;100.00;98237.09;5000370;28;20310;-73
2023/10/09 01:14:44;;;;;;;;;;;13.90;99.90;;;13.10;100.00;98237.88;5003317;28;20406;-73
2023/10/09 01:17:45;;;;;;;;;;;13.90;99.90;;;13.05;100.00;98237.22;5002642;28;19948;-72
2023/10/09 01:20:16;;;;;;;;;;;13.90;99.90;;;13.06;100.00;98232.84;5014421;28;20406;-73
2023/10/09 01:22:44;;;;;;;;;;;13.90;99.90;;;13.10;100.00;98227.44;5000104;28;19937;-73
2023/10/09 01:25:11;;;;;;;;;;;13.90;99.90;;;13.05;100.00;98219.00;5001665;28;19929;-73
2023/10/09 01:27:40;;;;;;;;;;;13.90;99.90;;;13.12;100.00;98225.63;5004478;28;19940;-74
2023/10/09 01:30:13;;;;;;;;;;;13.90;99.90;;;13.07;100.00;98219.78;5002614;28;19925;-73
2023/10/09 01:32:43;;;;;;;;;;;13.80;99.90;;;13.05;100.00;98215.53;5016976;28;19925;-73
2023/10/09 01:35:23;;;;;;;;;;;13.70;99.90;;;13.09;100.00;98209.25;5001520;28;19926;-73
2023/10/09 01:37:51;;;;;;;;;;;13.70;99.90;;;13.12;100.00;98207.38;5002360;28;19933;-73
2023/10/09 01:40:36;;;;;;;;;;;13.60;99.90;;;13.20;100.00;98207.03;5005796;28;19967;-73
2023/10/09 01:43:04;;;;;;;;;;;13.60;99.90;;;13.12;100.00;98207.38;4999605;28;19932;-73
2023/10/09 01:45:41;;;;;;;;;;;13.60;99.90;;;13.21;100.00;98210.53;5001347;28;19930;-73
2023/10/09 01:48:11;;;;;;;;;;;13.60;99.90;;;13.25;100.00;98210.31;5001160;28;20019;-73
2023/10/09 01:50:42;;;;;;;;;;;13.60;99.90;;;13.27;100.00;98208.47;5013925;28;20435;-73
2023/10/09 01:53:09;;;;;;;;;;;13.60;99.90;;;13.35;100.00;98205.59;4988762;28;20487;-73
2023/10/09 01:55:40;;;;;;;;;;;13.60;99.90;;;13.25;100.00;98197.28;5011495;28;19929;-73
2023/10/09 02:00:56;;;;;;;;;;;13.60;99.90;;;13.29;100.00;98196.25;5014017;28;20457;-73
2023/10/09 02:03:23;;;;;;;;;;;13.60;99.90;;;13.24;100.00;98192.13;5015285;28;20048;-72
2023/10/09 02:06:03;;;;;;;;;;;13.60;99.90;;;13.34;100.00;98194.31;5000662;28;20379;-72
2023/10/09 02:08:34;;;;;;;;;;;13.60;99.90;;;13.26;100.00;98191.16;4996957;28;20027;-73
2023/10/09 02:11:02;;;;;;;;;;;13.70;99.90;;;13.26;100.00;98196.38;5000468;28;19925;-72
2023/10/09 02:13:30;;;;;;;;;;;13.70;99.90;;;13.24;100.00;98198.19;4997795;28;19933;-73
2023/10/09 02:16:15;;;;;;;;;;;13.60;99.90;;;13.32;100.00;98193.53;5013648;28;19944;-71
2023/10/09 02:21:41;;;;;;;;;;;13.70;99.90;;;13.23;100.00;98188.69;4998742;28;19943;-72
2023/10/09 02:24:13;;;;;;;;;;;13.70;99.90;;;13.39;100.00;98197.56;4998930;28;19937;-71
2023/10/09 02:29:23;;;;;;;;;;;13.80;99.90;;;13.41;100.00;98180.97;5002032;28;19976;-72
2023/10/09 02:32:00;;;;;;;;;;;13.80;99.90;;;13.48;100.00;98185.00;5002216;28;19930;-73
2023/10/09 02:34:29;;;;;;;;;;;13.80;99.90;;;13.46;100.00;98179.03;4998650;28;19926;-73
2023/10/09 02:37:05;;;;;;;;;;;13.90;99.90;;;13.53;100.00;98178.69;5001585;28;20416;-73
2023/10/09 02:39:37;;;;;;;;;;;13.90;99.90;;;13.58;100.00;98178.47;5000087;28;20381;-73
2023/10/09 02:42:47;;;;;;;;;;;13.90;99.90;;;13.60;100.00;98189.69;5000518;28;20366;-73
2023/10/09 02:44:55;;;;;;;;;;;13.90;99.90;;;13.55;100.00;98182.06;4990928;28;20476;-73
2023/10/09 02:47:29;;;;;;;;;;;14.00;99.90;;;13.48;100.00;98185.88;5000395;28;20373;-73
2023/10/09 02:50:07;;;;;;;;;;;14.10;99.90;;;13.55;100.00;98186.44;5001229;28;19925;-72
2023/10/09 02:52:40;;;;;;;;;;;14.10;99.90;;;13.55;100.00;98183.84;4999885;28;20477;-72
2023/10/09 02:55:13;;;;;;;;;;;14.20;99.90;;;13.60;100.00;98181.88;5001615;28;19936;-73
2023/10/09 02:57:41;;;;;;;;;;;14.20;99.90;;;13.56;100.00;98172.47;5000087;28;20394;-73
2023/10/09 03:00:09;;;;;;;;;;;14.20;99.90;;;13.47;100.00;98175.50;5001794;28;19938;-72
2023/10/09 03:02:39;;;;;;;;;;;14.20;99.90;;;13.39;100.00;98179.31;5001954;28;19940;-72
2023/10/09 03:05:12;;;;;;;;;;;14.20;99.90;;;13.37;100.00;98170.69;4999953;28;19965;-73
2023/10/09 03:07:39;;;;;;;;;;;14.20;99.90;;;13.41;100.00;98178.38;5000660;28;19941;-73
2023/10/09 03:10:09;;;;;;;;;;;14.10;99.90;;;13.37;100.00;98170.69;4998541;28;19933;-71
2023/10/09 03:12:39;;;;;;;;;;;14.10;99.90;;;13.37;100.00;98170.69;5000168;28;19941;-72
2023/10/09 03:15:08;;;;;;;;;;;14.10;99.90;;;13.37;100.00;98185.50;4997124;28;19933;-73
2023/10/09 03:17:35;;;;;;;;;;;14.10;99.90;;;13.47;100.00;98185.94;5001883;28;20427;-73
2023/10/09 03:20:12;;;;;;;;;;;14.10;99.90;;;13.45;100.00;98188.59;5002034;28;19943;-72
2023/10/09 03:22:44;;;;;;;;;;;14.10;99.90;;;13.34;100.00;98190.84;5012629;28;19992;-72
2023/10/09 03:25:13;;;;;;;;;;;14.10;99.90;;;13.38;100.00;98185.41;5012919;28;20287;-73
2023/10/09 03:27:47;;;;;;;;;;;14.10;99.90;;;13.38;100.00;98187.19;4997434;28;19930;-73
2023/10/09 03:30:25;;;;;;;;;;;14.10;99.90;;;13.37;100.00;98188.13;4984589;28;20038;-72
2023/10/09 03:32:52;;;;;;;;;;;14.10;99.90;;;13.33;100.00;98191.75;4998759;28;19930;-73
2023/10/09 03:35:27;;;;;;;;;;;14.10;99.90;;;13.34;100.00;98196.91;4998991;28;19933;-73
2023/10/09 03:38:00;;;;;;;;;;;14.10;99.90;;;13.32;100.00;98196.13;5012070;28;19933;-70
2023/10/09 03:40:28;;;;;;;;;;;14.20;99.90;;;13.35;100.00;98187.31;4998434;28;20714;-73
2023/10/09 03:42:55;;;;;;;;;;;14.20;99.90;;;13.33;100.00;98195.22;4998929;28;19930;-72
2023/10/09 03:45:25;;;;;;;;;;;14.10;99.90;;;13.33;100.00;98194.38;5000142;28;20019;-73
2023/10/09 03:48:11;;;;;;;;;;;14.10;99.90;;;13.34;100.00;98193.44;5000355;28;19936;-73
2023/10/09 03:50:40;;;;;;;;;;;14.10;99.90;;;13.34;100.00;98190.84;5000570;28;19932;-72
2023/10/09 03:53:08;;;;;;;;;;;14.10;99.90;;;13.37;100.00;98188.13;5011476;28;19971;-73
2023/10/09 03:55:37;;;;;;;;;;;14.10;99.90;;;13.35;100.00;98184.72;5000873;28;20477;-73
2023/10/09 03:58:11;;;;;;;;;;;14.20;99.90;;;13.46;100.00;98192.09;4999479;28;20936;-72
2023/10/09 04:00:45;;;;;;;;;;;14.20;99.90;;;13.46;100.00;98192.91;5000292;28;19925;-73
2023/10/09 04:03:15;;;;;;;;;;;14.20;99.90;;;13.47;100.00;98194.59;4999835;28;21084;-72
2023/10/09 04:05:43;;;;;;;;;;;14.20;99.90;;;13.52;100.00;98183.97;5008878;28;20009;-72
2023/10/09 04:08:19;;;;;;;;;;;14.20;99.90;;;13.67;100.00;98187.66;5000123;28;19933;-73
2023/10/09 04:11:01;;;;;;;;;;;14.30;99.90;;;13.55;100.00;98176.84;4979222;28;19929;-73
2023/10/09 04:13:34;;;;;;;;;;;14.30;99.90;;;13.64;100.00;98182.56;4997325;28;19933;-73
2023/10/09 04:16:33;;;;;;;;;;;14.40;99.90;;;13.53;100.00;98176.06;5001243;28;20430;-73
2023/10/09 04:19:11;;;;;;;;;;;14.30;99.90;;;13.51;100.00;98188.34;5000502;28;20016;-72
2023/10/09 04:21:38;;;;;;;;;;;14.30;99.90;;;13.52;100.00;98181.34;5004774;28;19965;-73
2023/10/09 04:26:45;;;;;;;;;;;14.20;99.90;;;13.36;100.00;98181.19;5016895;28;19929;-73
2023/10/09 04:29:18;;;;;;;;;;;14.20;99.90;;;13.38;100.00;98177.59;4997763;28;20662;-72
2023/10/09 04:31:51;;;;;;;;;;;14.20;99.90;;;13.45;100.00;98180.78;4968969;28;19984;-71
2023/10/09 04:34:23;;;;;;;;;;;14.10;99.90;;;13.34;100.00;98176.06;4966637;28;19934;-72
2023/10/09 04:39:46;;;;;;;;;;;13.90;99.90;;;13.23;100.00;98169.56;4954716;28;19925;-72
2023/10/09 04:47:35;;;;;;;;;;;13.80;99.90;;;13.27;100.00;98166.75;5015365;28;19930;-72
2023/10/09 04:58:00;;;;;;;;;;;13.70;99.90;;;13.16;100.00;98177.69;5015070;28;20015;-73
2023/10/09 05:08:21;;;;;;;;;;;13.60;99.90;;;13.02;100.00;98184.38;5002540;28;20418;-73
2023/10/09 05:16:18;;;;;;;;;;;13.60;99.90;;;13.03;100.00;98186.94;5000779;28;19930;-72
2023/10/09 05:18:55;;;;;;;;;;;13.70;99.90;;;13.07;100.00;98200.66;5001248;28;19952;-72
2023/10/09 05:21:44;;;;;;;;;;;13.70;99.90;;;13.10;100.00;98203.16;5001359;28;19933;-72
2023/10/09 05:29:34;;;;;;;;;;;13.70;99.90;;;13.05;100.00;98203.34;5021735;28;19933;-72
2023/10/09 05:32:15;;;;;;;;;;;13.70;99.90;;;13.02;100.00;98206.06;5002332;28;19926;-72
2023/10/09 05:37:33;;;;;;;;;;;13.80;99.90;;;13.11;100.00;98213.53;5002672;28;19929;-73
2023/10/09 05:42:45;;;;;;;;;;;13.70;99.90;;;13.04;100.00;98214.66;4994270;28;19930;-72
2023/10/09 06:05:14;;;;;;;;;;;13.80;99.90;;;13.37;100.00;98204.59;5005223;28;19930;-73
2023/10/09 06:07:40;;;;;;;;;;;13.80;99.90;;;13.44;100.00;98206.94;5001193;28;20024;-72
2023/10/09 06:10:17;;;;;;;;;;;13.80;99.90;;;13.46;100.00;98211.19;5002112;28;19930;-72
2023/10/09 06:15:50;;;;;;;;;;;13.80;99.90;;;13.45;100.00;98224.28;5004521;28;19929;-73
2023/10/09 06:18:32;;;;;;;;;;;13.80;99.90;;;13.43;100.00;98216.50;5000385;28;20539;-73
2023/10/09 06:24:08;;;;;;;;;;;13.80;99.90;;;13.39;100.00;98218.41;5005791;28;19937;-72
2023/10/09 06:26:36;;;;;;;;;;;13.80;99.90;;;13.38;100.00;98223.69;5001135;28;19929;-73
2023/10/09 06:29:15;;;;;;;;;;;13.80;99.90;;;13.35;100.00;98218.63;5000240;28;19925;-72
2023/10/09 06:31:58;;;;;;;;;;;13.80;99.90;;;13.26;100.00;98222.44;5001768;28;19929;-73
2023/10/09 06:34:44;;;;;;;;;;;13.80;99.90;;;13.38;100.00;98226.28;5001782;28;19953;-72
2023/10/09 06:37:34;;;;;;;;;;;13.80;99.90;;;13.43;100.00;98231.31;5005336;28;19926;-72
2023/10/09 06:41:18;;;;;;;;;;;13.80;99.90;;;13.39;100.00;98234.06;5002488;28;19926;-72
2023/10/09 06:42:57;;;;;;;;;;;13.80;99.90;;;13.37;100.00;98235.88;5002144;28;20406;-72
2023/10/09 06:45:32;;;;;;;;;;;13.80;99.90;;;13.46;100.00;98232.03;5008935;28;20020;-73
2023/10/09 06:48:09;;;;;;;;;;;13.80;99.90;;;13.42;100.00;98242.66;5004235;28;20301;-72
2023/10/09 06:50:56;;;;;;;;;;;13.80;99.90;;;13.47;100.00;98251.13;5003827;28;20012;-72
2023/10/09 06:53:58;;;;;;;;;;;13.80;99.90;;;13.55;100.00;98241.22;5002067;28;19956;-72
2023/10/09 06:56:25;;;;;;;;;;;13.70;99.90;;;13.37;100.00;98241.09;4997947;28;19929;-73
2023/10/09 06:58:55;;;;;;;;;;;13.80;99.90;;;13.47;100.00;98251.97;5002720;28;19929;-73
2023/10/09 07:06:52;;;;;;;;;;;13.80;99.90;;;13.34;100.00;98256.03;5002939;28;19934;-72
2023/10/09 07:09:19;;;;;;;;;;;13.80;99.90;;;13.34;100.00;98251.69;5003980;28;20389;-73
2023/10/09 07:17:15;;;;;;;;;;;13.90;99.90;;;13.53;100.00;98258.69;5005317;28;19936;-72
2023/10/09 07:24:58;;;;;;;;;;;14.00;99.90;;;13.73;100.00;98266.50;5001026;28;19934;-73
2023/10/09 07:27:48;;;;;;;;;;;14.00;99.90;;;13.64;100.00;98277.34;4998850;28;20369;-73
2023/10/09 07:38:14;;;;;;;;;;;14.20;99.90;;;13.79;100.00;98274.03;5002654;28;20036;-72
2023/10/09 07:41:33;;;;;;;;;;;14.20;99.90;;;13.74;100.00;98275.16;5005935;28;19975;-72
2023/10/09 07:43:47;;;;;;;;;;;14.30;99.90;;;13.85;100.00;98272.94;5002390;28;20007;-72
2023/10/09 07:49:12;;;;;;;;;;;14.30;99.90;;;14.02;100.00;98277.38;5001998;28;20017;-72
2023/10/09 07:51:43;;;;;;;;;;;14.40;99.90;;;14.26;100.00;98280.63;5001321;28;20057;-72
2023/10/09 07:54:15;;;;;;;;;;;14.40;99.90;;;14.18;100.00;98280.97;5000806;28;20682;-71
2023/10/09 07:56:46;;;;;;;;;;;14.50;99.90;;;14.28;100.00;98283.16;5002544;28;20585;-71
2023/10/09 07:59:14;;;;;;;;;;;14.50;99.90;;;14.47;100.00;98283.16;4998912;28;19929;-72
2023/10/09 08:04:37;;;;;;;;;;;14.70;99.90;;;14.44;100.00;98286.78;5002221;28;20022;-72
2023/10/09 08:07:09;;;;;;;;;;;14.90;99.90;;;14.58;100.00;98278.31;5014118;28;19934;-71
2023/10/09 08:18:03;;;;;;;;;;;15.20;99.90;;;15.04;100.00;98290.00;5006273;28;20544;-72
2023/10/09 08:24:04;;;;;;;;;;;15.30;99.90;;;15.08;100.00;98279.41;4999761;28;19935;-72
2023/10/09 08:26:14;;;;;;;;;;;15.30;99.90;;;15.21;100.00;98288.28;4996450;28;19968;-71
2023/10/09 08:31:19;;;;;;;;;;;15.50;99.90;;;15.23;100.00;98279.44;5001575;28;20288;-71
2023/10/09 08:33:56;;;;;;;;;;;15.70;99.90;;;15.31;100.00;98286.09;5013474;28;20329;-71
2023/10/09 08:36:36;;;;;;;;;;;15.70;99.90;;;15.40;100.00;98276.00;5001040;28;19965;-71
2023/10/09 08:39:25;;;;;;;;;;;15.80;99.90;;;15.54;100.00;98277.91;5001142;28;19926;-72
2023/10/09 08:41:52;;;;;;;;;;;16.00;99.90;;;15.80;100.00;98283.56;5014869;28;19929;-72
2023/10/09 08:44:22;;;;;;;;;;;16.20;99.90;;;15.79;100.00;98295.00;4997932;28;19941;-71
2023/10/09 08:46:57;;;;;;;;;;;16.30;99.90;;;16.01;100.00;98298.16;5000027;28;20354;-72
2023/10/09 08:49:25;;;;;;;;;;;16.30;99.90;;;15.88;100.00;98307.59;4998472;28;19933;-72
2023/10/09 08:51:55;;;;;;;;;;;16.40;99.90;;;16.05;100.00;98293.59;4995175;28;20012;-72
2023/10/09 08:54:22;;;;;;;;;;;16.40;99.90;;;16.11;100.00;98288.03;5010019;28;19933;-72
2023/10/09 08:56:56;;;;;;;;;;;16.40;99.90;;;16.15;100.00;98291.31;5001426;28;19996;-72
2023/10/09 08:59:23;;;;;;;;;;;16.50;99.90;;;16.10;100.00;98296.81;5000439;28;20382;-72
2023/10/09 09:01:51;;;;;;;;;;;16.50;99.90;;;16.15;100.00;98305.28;5003235;28;19933;-72
2023/10/09 09:04:39;;;;;;;;;;;16.60;99.90;;;16.14;100.00;98298.34;4996474;28;20406;-72
2023/10/09 09:07:24;;;;;;;;;;;16.50;99.90;;;16.54;100.00;98297.97;5004885;28;20023;-71
2023/10/09 09:09:57;;;;;;;;;;;16.60;99.90;;;16.42;100.00;98287.22;5005305;28;20005;-73
2023/10/09 09:12:24;;;;;;;;;;;16.70;99.90;;;16.18;100.00;98301.66;5005090;28;19929;-72
2023/10/09 09:14:51;;;;;;;;;;;16.80;99.90;;;16.29;100.00;98299.31;5007237;28;19929;-71
2023/10/09 09:17:30;;;;;;;;;;;16.70;99.90;;;16.19;100.00;98292.84;5005413;28;20259;-72
2023/10/09 09:19:58;;;;;;;;;;;16.80;99.90;;;16.38;100.00;98293.56;5017722;28;19960;-73
2023/10/09 09:22:26;;;;;;;;;;;16.70;99.90;;;16.05;100.00;98296.22;5003626;28;20473;-72
2023/10/09 09:25:02;;;;;;;;;;;16.70;99.90;;;16.33;100.00;98297.34;5002380;28;19937;-72
2023/10/09 09:27:52;;;;;;;;;;;16.90;99.90;;;16.81;100.00;98293.84;5004143;28;19940;-72
2023/10/09 09:30:32;;;;;;;;;;;17.00;99.90;;;17.22;100.00;98293.22;5007730;28;19933;-73
2023/10/09 09:33:43;;;;;;;;;;;17.30;99.90;;;17.57;100.00;98287.69;4998958;28;19975;-72
2023/10/09 09:36:13;;;;;;;;;;;17.70;99.90;;;17.95;100.00;98288.03;4961582;28;20772;-74
2023/10/09 09:38:49;;;;;;;;;;;18.10;99.90;;;17.88;100.00;98284.09;4994727;28;20032;-72
2023/10/09 09:41:27;;;;;;;;;;;18.40;99.90;;;17.90;100.00;98279.59;4998834;28;19995;-72
2023/10/09 09:43:56;;;;;;;;;;;18.50;99.90;;;17.94;100.00;98274.97;5003700;28;19977;-73
2023/10/09 09:46:36;;;;;;;;;;;18.60;99.90;;;17.71;100.00;98269.31;5002427;28;19972;-71
2023/10/09 09:49:21;;;;;;;;;;;18.60;99.90;;;17.78;100.00;98273.25;5017320;28;19964;-72
2023/10/09 09:51:48;;;;;;;;;;;18.40;99.90;;;18.03;100.00;98278.81;5003606;28;19933;-72
2023/10/09 09:54:15;;;;;;;;;;;18.20;99.90;;;17.67;100.00;98278.31;5004708;28;20065;-73
2023/10/09 09:56:52;;;;;;;;;;;18.20;99.90;;;17.74;100.00;98274.41;5001079;28;19937;-73
2023/10/09 09:59:27;;;;;;;;;;;18.20;99.90;;;17.59;100.00;98279.72;5001748;28;19929;-72
2023/10/09 10:02:06;;;;;;;;;;;18.20;99.90;;;17.54;100.00;98295.75;5006526;28;19969;-73
2023/10/09 10:04:39;;;;;;;;;;;18.20;99.90;;;17.43;100.00;98282.41;4990881;28;20641;-73
2023/10/09 10:07:09;;;;;;;;;;;18.20;99.90;;;17.56;100.00;98278.97;4989318;28;20024;-73
2023/10/09 10:09:38;;;;;;;;;;;18.00;99.90;;;17.70;100.00;98279.94;5002932;28;19929;-73
2023/10/09 10:12:09;;;;;;;;;;;18.00;99.90;;;17.62;100.00;98283.00;4998061;28;20371;-73
2023/10/09 10:15:16;;;;;;;;;;;18.00;99.90;;;17.77;100.00;98286.50;5013723;28;19932;-74
2023/10/09 10:17:59;;;;;;;;;;;18.00;99.90;;;17.78;100.00;98306.53;5006291;28;19934;-73
2023/10/09 10:20:26;;;;;;;;;;;18.00;99.90;;;17.56;100.00;98299.09;5002764;28;19991;-73
2023/10/09 10:23:19;;;;;;;;;;;18.00;99.90;;;17.62;100.00;98305.78;5002040;28;19926;-73
2023/10/09 10:25:49;;;;;;;;;;;18.00;99.90;;;17.66;100.00;98302.88;5002380;28;19936;-73
2023/10/09 10:28:45;;;;;;;;;;;17.90;99.90;;;17.56;100.00;98304.34;5005206;28;19975;-73
2023/10/09 10:31:15;;;;;;;;;;;17.90;99.90;;;17.65;100.00;98316.09;5000350;28;20400;-73
2023/10/09 10:33:53;;;;;;;;;;;17.90;99.90;;;17.57;100.00;98319.19;4997377;28;20013;-73
2023/10/09 10:36:26;;;;;;;;;;;18.00;99.90;;;17.79;100.00;98305.63;5002418;28;19935;-74
2023/10/09 10:39:10;;;;;;;;;;;18.10;99.90;;;17.87;100.00;98305.19;4999494;28;19930;-73
2023/10/09 10:41:54;;;;;;;;;;;18.20;99.90;;;18.36;100.00;98312.69;5015911;28;19934;-74
2023/10/09 10:44:42;;;;;;;;;;;18.30;99.90;;;18.85;100.00;98306.94;5001656;28;19929;-74
2023/10/09 10:47:24;;;;;;;;;;;18.60;99.90;;;19.10;100.00;98303.56;4997178;28;19977;-74
2023/10/09 10:49:57;;;;;;;;;;;18.90;99.90;;;19.13;100.00;98305.97;5017218;28;20357;-74
2023/10/09 10:52:44;;;;;;;;;;;19.30;99.90;;;19.42;100.00;98309.31;5000503;28;19926;-74
2023/10/09 10:55:17;;;;;;;;;;;19.30;99.90;;;19.71;100.00;98303.06;4989489;28;19936;-74
2023/10/09 10:57:55;;;;;;;;;;;19.60;99.90;;;19.90;100.00;98295.56;4999888;28;19930;-74
2023/10/09 11:03:17;;;;;;;;;;;20.00;99.90;;;19.39;100.00;98291.09;5002762;28;20080;-74
2023/10/09 11:05:51;;;;;;;;;;;20.00;99.90;;;19.22;100.00;98284.31;4998278;28;19929;-74
2023/10/09 11:08:24;;;;;;;;;;;20.00;99.90;;;19.52;100.00;98288.47;5000095;28;20028;-74
2023/10/09 11:10:53;;;;;;;;;;;20.00;99.90;;;19.51;100.00;98280.69;5012141;28;19970;-74
2023/10/09 11:13:30;;;;;;;;;;;20.10;99.90;;;19.65;100.00;98275.31;4989921;28;20317;-74
2023/10/09 11:16:14;;;;;;;;;;;20.00;99.90;;;19.53;100.00;98277.00;4996542;28;20440;-74
2023/10/09 11:18:48;;;;;;;;;;;19.90;99.90;;;19.29;100.00;98268.94;5000429;28;19933;-74
2023/10/09 11:23:57;;;;;;;;;;;19.80;99.90;;;19.71;100.00;98263.56;5002726;28;20051;-74
2023/10/09 11:26:27;;;;;;;;;;;19.90;99.90;;;19.83;100.00;98262.69;5002117;28;19956;-74
2023/10/09 11:29:28;;;;;;;;;;;20.00;99.90;;;19.89;100.00;98264.06;4999081;28;20461;-72
2023/10/09 11:32:05;;;;;;;;;;;20.20;99.90;;;20.03;100.00;98279.75;5011075;28;19936;-72
2023/10/09 11:34:34;;;;;;;;;;;20.10;99.90;;;20.27;100.00;98272.75;5000764;28;19926;-73
2023/10/09 11:37:38;;;;;;;;;;;20.30;99.90;;;19.97;100.00;98267.00;4999628;28;19934;-73
2023/10/09 11:40:23;;;;;;;;;;;20.40;99.90;;;20.08;100.00;98275.00;5002579;28;19926;-73
2023/10/09 11:42:50;;;;;;;;;;;20.20;99.90;;;20.00;100.00;98266.78;5013143;28;20110;-74
2023/10/09 11:45:31;;;;;;;;;;;20.10;99.90;;;19.64;100.00;98260.47;5002023;28;19934;-73
2023/10/09 11:48:07;;;;;;;;;;;20.00;99.90;;;19.32;100.00;98257.41;5001762;28;20294;-75
2023/10/09 11:50:43;;;;;;;;;;;19.90;99.90;;;19.15;100.00;98250.63;5010089;28;20998;-73
2023/10/09 11:56:09;;;;;;;;;;;19.70;99.90;;;19.47;100.00;98251.06;5005707;28;20381;-72
2023/10/09 11:58:40;;;;;;;;;;;19.70;99.90;;;19.58;100.00;98245.09;5001322;28;19929;-72
2023/10/09 12:01:19;;;;;;;;;;;19.90;99.90;;;19.80;100.00;98223.41;4998765;28;20306;-72
2023/10/09 12:03:49;;;;;;;;;;;20.00;99.90;;;19.73;100.00;98211.59;5000153;28;19930;-71
2023/10/09 12:06:19;;;;;;;;;;;20.10;99.90;;;19.92;100.00;98219.06;4998244;28;19937;-72
2023/10/09 12:08:49;;;;;;;;;;;20.10;99.90;;;19.99;100.00;98217.69;4998071;28;20028;-71
2023/10/09 12:11:22;;;;;;;;;;;20.20;99.90;;;20.42;100.00;98225.16;4998879;28;19939;-72
2023/10/09 12:13:56;;;;;;;;;;;20.30;99.90;;;20.71;100.00;98224.81;5000872;28;19936;-72
2023/10/09 12:16:27;;;;;;;;;;;20.60;99.90;;;20.96;100.00;98224.72;4997846;28;20359;-72
2023/10/09 12:18:55;;;;;;;;;;;20.70;99.90;;;21.09;100.00;98230.72;4999502;28;20782;-72
2023/10/09 12:21:23;;;;;;;;;;;20.90;99.90;;;21.21;100.00;98231.63;4998940;28;20361;-72
2023/10/09 12:23:50;;;;;;;;;;;21.00;99.90;;;21.51;100.00;98217.06;5000236;28;19933;-72
2023/10/09 12:26:17;;;;;;;;;;;21.20;99.90;;;21.13;100.00;98220.78;4998383;28;19933;-73
2023/10/09 12:28:45;;;;;;;;;;;21.20;99.90;;;21.37;100.00;98209.31;5002302;28;20549;-73
2023/10/09 12:31:19;;;;;;;;;;;21.40;99.90;;;21.70;100.00;98219.13;4998325;28;19930;-72
2023/10/09 12:33:51;;;;;;;;;;;21.70;99.90;;;21.87;100.00;98221.28;5000034;28;20008;-73
2023/10/09 12:36:19;;;;;;;;;;;21.90;99.90;;;21.68;100.00;98213.09;4999301;28;19940;-72
2023/10/09 12:38:53;;;;;;;;;;;21.90;99.90;;;21.86;100.00;98214.31;4997993;28;19930;-72
2023/10/09 12:41:26;;;;;;;;;;;22.00;99.90;;;21.85;100.00;98225.84;5007303;28;20429;-73
2023/10/09 12:43:55;;;;;;;;;;;22.10;99.90;;;22.04;100.00;98216.47;5016371;28;19926;-72
2023/10/09 12:46:25;;;;;;;;;;;22.10;99.90;;;22.32;100.00;98210.66;5002435;28;20357;-73
2023/10/09 12:48:54;;;;;;;;;;;22.20;99.90;;;22.16;100.00;98204.06;5005628;28;20024;-73
2023/10/09 12:51:29;;;;;;;;;;;22.40;99.90;;;22.23;100.00;98200.00;5021390;28;20888;-72
2023/10/09 12:53:57;;;;;;;;;;;22.40;99.90;;;22.23;100.00;98202.66;5002383;28;19929;-70
2023/10/09 12:56:37;;;;;;;;;;;22.40;99.90;;;22.30;100.00;98196.72;5002440;28;19932;-71
2023/10/09 12:59:07;;;;;;;;;;;22.50;99.90;;;22.36;100.00;98187.47;5013318;28;20008;-72
2023/10/09 13:01:42;;;;;;;;;;;22.30;99.90;;;22.27;100.00;98185.56;5002523;28;19945;-72
2023/10/09 13:04:17;;;;;;;;;;;22.40;99.90;;;22.39;100.00;98181.91;5003779;28;19941;-72
2023/10/09 13:06:45;;;;;;;;;;;22.50;99.90;;;22.88;100.00;98190.28;5003796;28;19925;-72
2023/10/09 13:09:32;;;;;;;;;;;22.70;99.90;;;24.05;100.00;98169.75;5002713;28;19930;-73
2023/10/09 13:12:00;;;;;;;;;;;22.90;99.90;;;24.54;100.00;98160.91;5005646;28;19937;-72
2023/10/09 13:14:28;;;;;;;;;;;23.30;99.90;;;24.34;100.00;98159.19;4987653;28;20139;-73
2023/10/09 13:16:55;;;;;;;;;;;23.10;99.90;;;23.21;100.00;98162.78;5000614;28;20278;-73
2023/10/09 13:19:24;;;;;;;;;;;23.20;99.90;;;23.69;100.00;98167.47;5002207;28;19934;-70
2023/10/09 13:21:51;;;;;;;;;;;23.10;99.90;;;24.25;100.00;98158.19;5004436;28;20317;-73
2023/10/09 13:24:24;;;;;;;;;;;23.10;99.90;;;24.39;100.00;98159.59;5007954;28;19929;-73
2023/10/09 13:26:52;;;;;;;;;;;23.30;99.90;;;24.32;100.00;98154.00;5005344;28;19930;-73
2023/10/09 13:29:22;;;;;;;;;;;23.40;99.90;;;24.65;100.00;98154.59;5003856;28;20389;-71
2023/10/09 13:31:58;;;;;;;;;;;23.70;99.90;;;25.58;100.00;98150.38;5002166;28;19934;-73
2023/10/09 13:34:28;;;;;;;;;;;;;;;25.34;100.00;98136.75;5004675;28;19933;-72
2023/10/09 13:37:04;;;;;;;;;;;24.60;99.90;;;26.10;100.00;98128.59;5004493;28;19991;-70
2023/10/09 13:39:37;;;;;;;;;;;25.00;99.90;;;26.15;100.00;98118.34;5005839;28;19933;-73
2023/10/09 13:42:07;;;;;;;;;;;25.40;99.90;;;25.50;100.00;98114.88;5002181;28;19938;-73
2023/10/09 13:44:36;;;;;;;;;;;25.30;99.90;;;25.67;100.00;98130.06;5001647;28;19925;-71
2023/10/09 13:47:11;;;;;;;;;;;24.80;99.90;;;26.21;100.00;98123.06;4998817;28;20314;-68
2023/10/09 13:49:40;;;;;;;;;;;24.80;99.90;;;26.56;100.00;98124.06;5004804;28;19931;-71
2023/10/09 13:52:09;;;;;;;;;;;24.50;99.90;;;26.59;100.00;98118.44;5002610;28;19961;-71
2023/10/09 13:57:04;;;;;;;;;;;25.30;99.90;;;26.41;100.00;98117.56;5007124;28;20037;-70
2023/10/09 13:59:35;;;;;;;;;;;25.50;99.90;;;26.09;100.00;98121.59;5003210;28;19972;-71